Gaiman, Argentina
Current Conditions -  °F | °C
As of 8:00 AM on Monday 20 Oct 2014 (Local Time) from SAVC Reporting Station
Broken Clouds Broken Clouds  
Wind Chill: 57°   Ceiling: 9000
Heat Index: 57°   Visibility: 6mi
Dew Point: 48°   Wind: 9mph
Humidity: 72%   Direction: 320°NW
Pressure: 29.68"   Gusts: NA
Location:  43.28°S, 65.48°W
Report Text: SAVC 201100Z 32008KT 9999 FEW020 BKN09014/09 Q1005
Loading
Personal Weather Stations






























Interactive Weather Map New forecast layout! Learn more

10-Day Weather Forecast

Advertisements
Track Severe Weather on mobile